Time;durP1;ratioP1;P1;durP2;ratioP2;P2;SDS_P1;SDS_P2;PMS_P1;PMS_P2;Temp;Humidity;BMP_temperature;BMP_pressure;BME280_temperature;BME280_humidity;BME280_pressure;Samples;Min_cycle;Max_cycle;Signal;HPM_P1;HPM_P2
2022/01/05 00:00:55;;;;;;;4.70;2.23;;;5.70;99.90;;;;;;4994142;28;20226;-71
2022/01/05 00:03:22;;;;;;;7.07;2.00;;;5.70;99.90;;;;;;4984793;28;20211;-71
2022/01/05 00:05:49;;;;;;;4.53;1.77;;;5.70;99.90;;;;;;4981701;28;20214;-72
2022/01/05 00:08:18;;;;;;;8.23;2.33;;;5.70;99.90;;;;;;4995885;28;20207;-71
2022/01/05 00:10:46;;;;;;;5.23;1.83;;;5.60;99.90;;;;;;4974162;28;20237;-71
2022/01/05 00:13:13;;;;;;;5.30;2.37;;;5.80;99.90;;;;;;4991786;28;20520;-71
2022/01/05 00:15:42;;;;;;;3.97;2.53;;;5.70;99.90;;;;;;4994440;28;20204;-72
2022/01/05 00:18:09;;;;;;;3.73;2.30;;;5.60;99.90;;;;;;4982924;28;20202;-71
2022/01/05 00:20:37;;;;;;;5.27;2.40;;;5.60;99.90;;;;;;4995204;28;20222;-71
2022/01/05 00:23:04;;;;;;;5.10;2.43;;;5.40;99.90;;;;;;4986236;28;20202;-71
2022/01/05 00:25:31;;;;;;;6.13;2.67;;;5.10;99.90;;;;;;4986851;28;20209;-71
2022/01/05 00:27:59;;;;;;;7.97;3.57;;;5.10;99.90;;;;;;4999342;28;20220;-71
2022/01/05 00:30:26;;;;;;;5.37;2.47;;;5.00;99.90;;;;;;4981523;28;20287;-71
2022/01/05 00:32:55;;;;;;;6.17;2.80;;;5.30;99.90;;;;;;4994408;28;20177;-71
2022/01/05 00:35:22;;;;;;;13.83;4.83;;;5.40;99.90;;;;;;4994258;28;20204;-71
2022/01/05 00:37:49;;;;;;;6.73;3.80;;;5.30;99.90;;;;;;4993905;28;20188;-72
2022/01/05 00:40:26;;;;;;;8.40;5.00;;;5.40;99.90;;;;;;4979635;28;20686;-71
2022/01/05 00:42:53;;;;;;;11.60;4.67;;;5.10;99.90;;;;;;4990626;28;20232;-72
2022/01/05 00:45:21;;;;;;;8.50;5.30;;;5.00;99.90;;;;;;4957023;28;20587;-71
2022/01/05 00:47:48;;;;;;;7.33;4.50;;;5.00;99.90;;;;;;4990131;28;20199;-71
2022/01/05 00:50:16;;;;;;;8.10;3.57;;;5.10;99.90;;;;;;4990589;28;20586;-71
2022/01/05 00:52:44;;;;;;;6.30;3.70;;;4.90;99.90;;;;;;5008112;28;20661;-71
2022/01/05 00:55:11;;;;;;;7.83;2.90;;;4.90;99.90;;;;;;4995056;28;20204;-71
2022/01/05 00:57:40;;;;;;;6.67;3.33;;;4.80;99.90;;;;;;4995597;28;20415;-71
2022/01/05 01:00:08;;;;;;;9.10;3.27;;;4.80;99.90;;;;;;5000488;28;20221;-71
2022/01/05 01:02:35;;;;;;;8.93;3.43;;;4.70;99.90;;;;;;5002020;28;20576;-71
2022/01/05 01:05:03;;;;;;;11.10;3.67;;;4.70;99.90;;;;;;4995385;28;20192;-71
2022/01/05 01:07:31;;;;;;;10.07;3.60;;;4.60;99.90;;;;;;4997029;28;20225;-71
2022/01/05 01:09:59;;;;;;;7.40;3.90;;;4.70;99.90;;;;;;4989169;28;20232;-71
2022/01/05 01:12:26;;;;;;;5.90;3.43;;;4.60;99.90;;;;;;4993585;28;20194;-71
2022/01/05 01:14:53;;;;;;;7.83;3.70;;;4.50;99.90;;;;;;4995312;28;20203;-71
2022/01/05 01:17:22;;;;;;;8.33;4.10;;;4.60;99.90;;;;;;4976938;28;20206;-71
2022/01/05 01:19:49;;;;;;;6.90;3.27;;;4.60;99.90;;;;;;4974496;28;20578;-71
2022/01/05 01:22:16;;;;;;;7.00;4.17;;;4.60;99.90;;;;;;4968932;28;20196;-71
2022/01/05 01:24:45;;;;;;;6.63;3.43;;;4.50;99.90;;;;;;4994201;28;20263;-71
2022/01/05 01:27:12;;;;;;;8.10;3.37;;;4.60;99.90;;;;;;4995397;28;20216;-71
2022/01/05 01:29:40;;;;;;;13.70;3.63;;;4.80;99.90;;;;;;4992546;28;20205;-72
2022/01/05 01:32:08;;;;;;;10.70;3.90;;;4.80;99.90;;;;;;4977128;28;20201;-72
2022/01/05 01:34:35;;;;;;;8.77;4.00;;;4.80;99.90;;;;;;4975227;28;20204;-72
2022/01/05 01:37:03;;;;;;;9.47;3.13;;;4.70;99.90;;;;;;4992778;28;20188;-71
2022/01/05 01:39:30;;;;;;;9.07;3.70;;;4.80;99.90;;;;;;4978807;28;20196;-71
2022/01/05 01:42:33;;;;;;;8.97;3.60;;;4.90;99.90;;;;;;4971977;28;20671;-71
2022/01/05 01:45:00;;;;;;;10.70;3.20;;;4.90;99.90;;;;;;4982996;28;20210;-71
2022/01/05 01:47:27;;;;;;;6.40;2.90;;;4.90;99.90;;;;;;4987128;28;20205;-71
2022/01/05 01:49:55;;;;;;;8.37;3.40;;;5.00;99.90;;;;;;4986154;28;20226;-71
2022/01/05 01:52:22;;;;;;;8.13;3.67;;;4.80;99.90;;;;;;4985678;28;20211;-71
2022/01/05 01:54:51;;;;;;;9.67;3.37;;;4.70;99.90;;;;;;4992214;28;20566;-71
2022/01/05 01:57:20;;;;;;;9.60;3.40;;;4.70;99.90;;;;;;4987919;28;20201;-71
2022/01/05 01:59:49;;;;;;;9.43;3.47;;;4.80;99.90;;;;;;4983423;28;20219;-71
2022/01/05 02:02:17;;;;;;;8.87;3.40;;;4.60;99.90;;;;;;4986439;28;20200;-71
2022/01/05 02:04:45;;;;;;;13.23;3.93;;;4.60;99.90;;;;;;4989886;28;20202;-71
2022/01/05 02:07:12;;;;;;;7.23;3.50;;;4.50;99.90;;;;;;4997306;28;20207;-71
2022/01/05 02:09:41;;;;;;;9.07;3.73;;;4.70;99.90;;;;;;4996662;28;20205;-71
2022/01/05 02:12:11;;;;;;;8.37;3.73;;;4.60;99.90;;;;;;4992606;28;20202;-71
2022/01/05 02:14:38;;;;;;;10.77;3.63;;;4.50;99.90;;;;;;4991218;28;20204;-71
2022/01/05 02:17:17;;;;;;;11.33;4.07;;;4.60;99.90;;;;;;4996836;28;20207;-71
2022/01/05 02:19:45;;;;;;;10.00;3.80;;;4.50;99.90;;;;;;4992141;28;20202;-71
2022/01/05 02:22:13;;;;;;;9.20;4.00;;;4.40;99.90;;;;;;4988927;28;20203;-71
2022/01/05 02:24:46;;;;;;;8.63;4.23;;;4.40;99.90;;;;;;4999784;28;20194;-71
2022/01/05 02:27:13;;;;;;;8.83;4.07;;;4.20;99.90;;;;;;4978910;28;20209;-71
2022/01/05 02:29:40;;;;;;;10.90;3.70;;;4.30;99.90;;;;;;4993251;28;20683;-71
2022/01/05 02:32:18;;;;;;;6.40;3.00;;;4.30;99.90;;;;;;4976430;28;20201;-71
2022/01/05 02:34:46;;;;;;;9.13;3.47;;;4.30;99.90;;;;;;4983204;28;20555;-71
2022/01/05 02:37:14;;;;;;;10.77;4.17;;;4.30;99.90;;;;;;4996653;28;20614;-71
2022/01/05 02:39:41;;;;;;;9.80;3.53;;;4.30;99.90;;;;;;4991699;28;20201;-71
2022/01/05 02:42:09;;;;;;;7.47;3.10;;;4.20;99.90;;;;;;4990128;28;20182;-71
2022/01/05 02:44:36;;;;;;;5.80;2.87;;;4.40;99.90;;;;;;4993656;28;20204;-71
2022/01/05 02:47:04;;;;;;;8.83;3.40;;;4.40;99.90;;;;;;4993516;28;20202;-71
2022/01/05 02:49:31;;;;;;;6.40;3.37;;;4.20;99.90;;;;;;4998133;28;20197;-71
2022/01/05 02:52:00;;;;;;;11.83;3.07;;;4.20;99.90;;;;;;4992035;28;20212;-72
2022/01/05 02:54:28;;;;;;;9.07;3.87;;;4.10;99.90;;;;;;4984504;28;20211;-73
2022/01/05 02:56:56;;;;;;;5.70;3.50;;;4.00;99.90;;;;;;4994022;28;20181;-73
2022/01/05 02:59:23;;;;;;;9.43;3.37;;;4.00;99.90;;;;;;4995357;28;20539;-73
2022/01/05 03:02:31;;;;;;;7.50;3.67;;;4.00;99.90;;;;;;4998283;28;20215;-73
2022/01/05 03:04:58;;;;;;;13.70;4.60;;;3.90;99.90;;;;;;5006496;28;20184;-73
2022/01/05 03:07:26;;;;;;;11.77;3.90;;;3.90;99.90;;;;;;4998015;28;20585;-73
2022/01/05 03:09:54;;;;;;;11.23;4.23;;;4.00;99.90;;;;;;5003836;28;20223;-73
2022/01/05 03:12:22;;;;;;;8.47;3.83;;;3.90;99.90;;;;;;4998773;28;20201;-73
2022/01/05 03:14:49;;;;;;;11.07;4.43;;;4.00;99.90;;;;;;4984611;28;20199;-71
2022/01/05 03:17:16;;;;;;;10.73;4.40;;;4.00;99.90;;;;;;4996284;28;20702;-71
2022/01/05 03:19:44;;;;;;;10.43;4.30;;;3.90;99.90;;;;;;4992791;28;20209;-71
2022/01/05 03:22:11;;;;;;;13.10;5.13;;;4.00;99.90;;;;;;4984755;28;20534;-71
2022/01/05 03:24:38;;;;;;;6.80;4.23;;;4.00;99.90;;;;;;4994073;28;20193;-71
2022/01/05 03:27:08;;;;;;;7.67;4.27;;;3.90;99.90;;;;;;4997484;28;20206;-71
2022/01/05 03:29:35;;;;;;;9.30;4.77;;;3.90;99.90;;;;;;4978878;28;20805;-72
2022/01/05 03:36:04;;;;;;;8.93;4.47;;;3.90;99.90;;;;;;5007427;28;20160;-73
2022/01/05 03:38:31;;;;;;;11.77;4.70;;;3.80;99.90;;;;;;4978281;28;20195;-73
2022/01/05 03:40:59;;;;;;;10.80;4.53;;;3.70;99.90;;;;;;4993774;28;20221;-73
2022/01/05 03:43:43;;;;;;;10.60;4.90;;;3.80;99.90;;;;;;4993416;28;20674;-72
2022/01/05 03:46:11;;;;;;;11.50;5.17;;;3.80;99.90;;;;;;4978089;28;20193;-73
2022/01/05 03:48:38;;;;;;;11.87;5.10;;;3.70;99.90;;;;;;4987838;28;20680;-73
2022/01/05 03:51:05;;;;;;;14.47;5.00;;;3.80;99.90;;;;;;4994606;28;20221;-73
2022/01/05 03:53:33;;;;;;;13.17;4.93;;;3.80;99.90;;;;;;4977370;28;20208;-71
2022/01/05 03:56:01;;;;;;;10.10;4.40;;;3.70;99.90;;;;;;4976590;28;20212;-71
2022/01/05 03:58:29;;;;;;;12.77;5.03;;;3.70;99.90;;;;;;4975015;28;20195;-71
2022/01/05 04:00:57;;;;;;;6.97;4.00;;;3.60;99.90;;;;;;4989886;28;20236;-72
2022/01/05 04:03:25;;;;;;;5.97;4.20;;;3.50;99.90;;;;;;4993412;28;20196;-73
2022/01/05 04:05:52;;;;;;;11.93;4.37;;;3.50;99.90;;;;;;4988597;28;20213;-73
2022/01/05 04:08:19;;;;;;;8.90;3.60;;;3.60;99.90;;;;;;4979311;28;20225;-73
2022/01/05 04:10:47;;;;;;;11.63;4.30;;;3.50;99.90;;;;;;4991212;28;20582;-73
2022/01/05 04:13:15;;;;;;;9.27;3.97;;;3.40;99.90;;;;;;4978868;28;20200;-73
2022/01/05 04:15:43;;;;;;;10.67;4.17;;;3.50;99.90;;;;;;4990347;28;20212;-73
2022/01/05 04:18:11;;;;;;;7.77;4.13;;;3.40;99.90;;;;;;4994825;28;20208;-73
2022/01/05 04:20:39;;;;;;;9.23;3.80;;;3.60;99.90;;;;;;4977012;28;20227;-71
2022/01/05 04:23:06;;;;;;;8.00;3.83;;;3.50;99.90;;;;;;4993977;28;20208;-71
2022/01/05 04:25:36;;;;;;;9.00;3.87;;;3.50;99.90;;;;;;4983086;28;20196;-71
2022/01/05 04:28:05;;;;;;;11.70;4.40;;;3.40;99.90;;;;;;4991340;28;20238;-71
2022/01/05 04:30:32;;;;;;;7.27;3.73;;;3.40;99.90;;;;;;4983446;28;20224;-71
2022/01/05 04:33:00;;;;;;;10.47;3.23;;;3.30;99.90;;;;;;4970348;28;20194;-72
2022/01/05 04:35:38;;;;;;;10.43;3.90;;;3.20;99.90;;;;;;4974235;28;20745;-73
2022/01/05 04:38:05;;;;;;;11.47;3.47;;;3.20;99.90;;;;;;4974920;28;20654;-73
2022/01/05 04:40:33;;;;;;;10.73;3.20;;;3.20;99.90;;;;;;4990033;28;20223;-73
2022/01/05 04:43:00;;;;;;;8.40;3.20;;;3.20;99.90;;;;;;4991326;28;20204;-73
2022/01/05 04:45:27;;;;;;;11.37;3.40;;;3.20;99.90;;;;;;4984014;28;20212;-73
2022/01/05 04:47:55;;;;;;;8.57;4.00;;;3.30;99.90;;;;;;5000891;28;20199;-73
2022/01/05 04:50:53;;;;;;;15.87;3.47;;;3.10;99.90;;;;;;4978715;28;20242;-73
2022/01/05 04:53:21;;;;;;;11.93;3.43;;;3.10;99.90;;;;;;4988392;28;20215;-73
2022/01/05 04:55:48;;;;;;;12.20;3.40;;;3.10;99.90;;;;;;4978800;28;20562;-73
2022/01/05 04:58:15;;;;;;;7.60;3.20;;;3.20;99.90;;;;;;4990905;28;20254;-73
2022/01/05 05:00:43;;;;;;;10.47;2.57;;;3.10;99.90;;;;;;4978159;28;20707;-73
2022/01/05 05:03:10;;;;;;;6.13;2.87;;;3.10;99.90;;;;;;4990529;28;20204;-73
2022/01/05 05:05:37;;;;;;;7.40;2.80;;;3.00;99.90;;;;;;4981249;28;20666;-73
2022/01/05 05:08:06;;;;;;;7.37;1.97;;;3.00;99.90;;;;;;4986470;28;20211;-73
2022/01/05 05:10:34;;;;;;;3.93;2.13;;;3.00;99.90;;;;;;4990363;28;20255;-73
2022/01/05 05:13:07;;;;;;;5.93;2.57;;;2.90;99.90;;;;;;4979129;28;20208;-73
2022/01/05 05:15:35;;;;;;;9.33;3.03;;;2.90;99.90;;;;;;4993744;28;20204;-73
2022/01/05 05:18:06;;;;;;;7.63;2.57;;;2.90;99.90;;;;;;4988030;28;20201;-73
2022/01/05 05:20:33;;;;;;;7.93;2.60;;;2.90;99.90;;;;;;4990995;28;20220;-73
2022/01/05 05:23:01;;;;;;;10.23;3.17;;;2.90;99.90;;;;;;4996510;28;20204;-73
2022/01/05 05:25:30;;;;;;;9.97;2.57;;;2.90;99.90;;;;;;5004418;28;20550;-73
2022/01/05 05:27:58;;;;;;;8.83;3.47;;;2.90;99.90;;;;;;4987288;28;20219;-73
2022/01/05 05:30:25;;;;;;;11.67;3.27;;;2.90;99.90;;;;;;4983815;28;20724;-73
2022/01/05 05:32:54;;;;;;;9.27;3.00;;;2.90;99.90;;;;;;4994105;28;20192;-73
2022/01/05 05:35:32;;;;;;;4.60;2.00;;;3.00;99.90;;;;;;4998064;28;20200;-73
2022/01/05 05:38:00;;;;;;;9.97;3.10;;;2.90;99.90;;;;;;4987260;28;20199;-73
2022/01/05 05:40:28;;;;;;;6.07;3.00;;;3.00;99.90;;;;;;4991420;28;20211;-73
2022/01/05 05:42:56;;;;;;;13.70;3.80;;;2.90;99.90;;;;;;4977035;28;20199;-73
2022/01/05 05:45:24;;;;;;;10.93;3.13;;;3.10;99.90;;;;;;4977578;28;20292;-73
2022/01/05 05:47:53;;;;;;;8.40;3.93;;;2.90;99.90;;;;;;5000248;28;20204;-73
2022/01/05 05:50:21;;;;;;;8.70;3.57;;;2.80;99.90;;;;;;4990660;28;20243;-73
2022/01/05 05:52:48;;;;;;;9.60;4.03;;;2.90;99.90;;;;;;4989596;28;20199;-73
2022/01/05 05:55:15;;;;;;;10.43;3.80;;;2.80;99.90;;;;;;4985914;28;20203;-73
2022/01/05 05:57:43;;;;;;;9.13;3.97;;;2.80;99.90;;;;;;4993234;28;20204;-73
2022/01/05 06:00:13;;;;;;;10.57;4.30;;;2.80;99.90;;;;;;4975983;28;20224;-73
2022/01/05 06:02:41;;;;;;;6.90;3.90;;;2.80;99.90;;;;;;5004044;28;20205;-73
2022/01/05 06:05:09;;;;;;;7.27;4.00;;;2.90;99.90;;;;;;4996923;28;20196;-73
2022/01/05 06:07:36;;;;;;;7.57;3.40;;;2.90;99.90;;;;;;4975992;28;20211;-72
2022/01/05 06:10:04;;;;;;;9.87;3.23;;;3.00;99.90;;;;;;4994260;28;20231;-72
2022/01/05 06:12:35;;;;;;;18.60;4.10;;;2.80;99.90;;;;;;4988867;28;20232;-72
2022/01/05 06:15:02;;;;;;;11.80;4.43;;;2.80;99.90;;;;;;4987041;28;20204;-72
2022/01/05 06:17:31;;;;;;;7.70;2.97;;;2.80;99.90;;;;;;4974399;28;20204;-72
2022/01/05 06:19:58;;;;;;;9.27;3.47;;;2.80;99.90;;;;;;4984705;28;20239;-72
2022/01/05 06:22:26;;;;;;;9.33;3.57;;;2.80;99.90;;;;;;4983307;28;20211;-72
2022/01/05 06:24:53;;;;;;;10.07;3.67;;;2.80;99.90;;;;;;4970536;28;20201;-72
2022/01/05 06:27:25;;;;;;;11.37;4.10;;;2.80;99.90;;;;;;4991999;28;20209;-72
2022/01/05 06:29:52;;;;;;;8.70;4.03;;;2.80;99.90;;;;;;4996901;28;20212;-72
2022/01/05 06:32:20;;;;;;;13.27;4.63;;;2.80;99.90;;;;;;4994372;28;20215;-73
2022/01/05 06:34:48;;;;;;;11.57;3.77;;;2.70;99.90;;;;;;4995225;28;20191;-72
2022/01/05 06:37:21;;;;;;;7.90;3.40;;;2.80;99.90;;;;;;4988489;28;20204;-73
2022/01/05 06:39:54;;;;;;;11.73;4.27;;;2.90;99.90;;;;;;4987209;28;20565;-73
2022/01/05 06:42:21;;;;;;;8.77;4.43;;;2.90;99.90;;;;;;4995293;28;20659;-73
2022/01/05 06:44:49;;;;;;;12.97;3.67;;;2.90;99.90;;;;;;4993607;28;20198;-73
2022/01/05 06:47:16;;;;;;;12.97;4.30;;;2.90;99.90;;;;;;4986786;28;20302;-73
2022/01/05 06:49:44;;;;;;;10.80;4.07;;;2.90;99.90;;;;;;4986480;28;20208;-73
2022/01/05 06:52:12;;;;;;;10.87;4.30;;;2.90;99.90;;;;;;4988425;28;20210;-72
2022/01/05 06:54:40;;;;;;;13.63;5.17;;;2.80;99.90;;;;;;4988747;28;20205;-72
2022/01/05 06:57:09;;;;;;;8.83;4.73;;;2.90;99.90;;;;;;4987810;28;20195;-72
2022/01/05 06:59:37;;;;;;;16.47;4.47;;;2.90;99.90;;;;;;4990680;28;20256;-72
2022/01/05 07:02:05;;;;;;;10.27;4.33;;;2.90;99.90;;;;;;4985497;28;20564;-72
2022/01/05 07:04:33;;;;;;;15.97;5.07;;;2.90;99.90;;;;;;4991626;28;20212;-73
2022/01/05 07:07:19;;;;;;;9.60;4.73;;;2.80;99.90;;;;;;4992149;28;20196;-73
2022/01/05 07:09:46;;;;;;;17.07;4.77;;;2.80;99.90;;;;;;4962332;28;20229;-72
2022/01/05 07:12:13;;;;;;;11.93;4.13;;;2.90;99.90;;;;;;4987336;28;20197;-73
2022/01/05 07:14:53;;;;;;;9.63;4.07;;;2.90;99.90;;;;;;4972133;28;20724;-72
2022/01/05 07:17:20;;;;;;;8.03;3.93;;;2.80;99.90;;;;;;4986563;28;20204;-72
2022/01/05 07:19:52;;;;;;;8.07;4.03;;;2.90;99.90;;;;;;4981197;28;20821;-73
2022/01/05 07:22:44;;;;;;;11.07;4.67;;;2.90;99.90;;;;;;4992376;28;20201;-73
2022/01/05 07:25:28;;;;;;;10.03;3.47;;;2.90;99.90;;;;;;4977175;28;20663;-73
2022/01/05 07:27:55;;;;;;;7.97;3.83;;;2.80;99.90;;;;;;4958742;28;20208;-73
2022/01/05 07:30:23;;;;;;;8.57;3.93;;;2.80;99.90;;;;;;4975488;28;20584;-73
2022/01/05 07:33:16;;;;;;;14.17;4.17;;;2.90;99.90;;;;;;4984359;28;20211;-74
2022/01/05 07:36:17;;;;;;;8.67;3.57;;;2.90;99.90;;;;;;4988893;28;20201;-74
2022/01/05 07:39:12;;;;;;;12.13;4.93;;;2.90;99.90;;;;;;4972373;28;20195;-74
2022/01/05 07:41:50;;;;;;;10.97;4.20;;;2.90;99.90;;;;;;4993335;28;20581;-74
2022/01/05 07:44:28;;;;;;;15.20;4.37;;;2.90;99.90;;;;;;4990327;28;20193;-75
2022/01/05 07:46:55;;;;;;;6.97;3.43;;;2.80;99.90;;;;;;4990244;28;20208;-75
2022/01/05 07:49:22;;;;;;;10.93;3.77;;;2.90;99.90;;;;;;4970473;28;20236;-75
2022/01/05 07:51:51;;;;;;;9.53;3.83;;;2.80;99.90;;;;;;4974973;28;20220;-76
2022/01/05 07:54:18;;;;;;;11.37;4.00;;;2.90;99.90;;;;;;4974234;28;20201;-75
2022/01/05 07:56:45;;;;;;;10.00;4.53;;;2.90;99.90;;;;;;4987376;28;20200;-75
2022/01/05 07:59:14;;;;;;;12.03;4.30;;;2.80;99.90;;;;;;4975867;28;20670;-75
2022/01/05 08:01:41;;;;;;;11.47;4.77;;;2.90;99.90;;;;;;4977832;28;20593;-75
2022/01/05 08:04:09;;;;;;;10.57;4.63;;;3.00;99.90;;;;;;4969737;28;20606;-75
2022/01/05 08:06:36;;;;;;;12.83;4.30;;;2.90;99.90;;;;;;4993058;28;20207;-75
2022/01/05 08:09:04;;;;;;;12.50;4.50;;;3.10;99.90;;;;;;4984240;28;20231;-75
2022/01/05 08:11:31;;;;;;;10.23;3.60;;;3.10;99.90;;;;;;4986810;28;20235;-75
2022/01/05 08:13:59;;;;;;;8.07;3.50;;;3.00;99.90;;;;;;4986863;28;20205;-74
2022/01/05 08:16:28;;;;;;;8.53;4.60;;;3.10;99.90;;;;;;4990579;28;20207;-77
2022/01/05 08:19:11;;;;;;;9.50;3.87;;;3.10;99.90;;;;;;4988259;28;21648;-76
2022/01/05 08:21:39;;;;;;;11.93;4.47;;;3.10;99.90;;;;;;4992107;28;20224;-77
2022/01/05 08:24:19;;;;;;;12.00;4.50;;;3.20;99.90;;;;;;4991564;28;20195;-77
2022/01/05 08:26:47;;;;;;;12.13;4.63;;;3.20;99.90;;;;;;4986969;28;20220;-77
2022/01/05 08:29:14;;;;;;;14.97;5.53;;;3.30;99.90;;;;;;4971549;28;20597;-77
2022/01/05 08:31:43;;;;;;;9.50;4.80;;;3.30;99.90;;;;;;4973088;28;20224;-76
2022/01/05 08:34:11;;;;;;;12.53;5.07;;;3.30;99.90;;;;;;4986230;28;20208;-77
2022/01/05 08:36:43;;;;;;;10.93;5.30;;;3.30;99.90;;;;;;4981685;28;20200;-76
2022/01/05 08:39:11;;;;;;;14.23;6.17;;;3.30;99.90;;;;;;4988780;28;20193;-75
2022/01/05 08:41:38;;;;;;;10.30;4.67;;;3.30;99.90;;;;;;4986801;28;20230;-74
2022/01/05 08:44:06;;;;;;;13.63;4.63;;;3.30;99.90;;;;;;4981813;28;20205;-77
2022/01/05 08:46:33;;;;;;;11.57;4.47;;;3.30;99.90;;;;;;4974444;28;20211;-77
2022/01/05 08:49:02;;;;;;;17.03;4.80;;;3.30;99.90;;;;;;4988097;28;20203;-77
2022/01/05 08:51:44;;;;;;;10.43;4.73;;;3.30;99.90;;;;;;4973939;28;20224;-76
2022/01/05 08:54:11;;;;;;;9.93;4.37;;;3.30;99.90;;;;;;4974346;28;20215;-76
2022/01/05 08:56:39;;;;;;;14.20;4.77;;;3.20;99.90;;;;;;4972613;28;20209;-75
2022/01/05 08:59:06;;;;;;;12.70;5.47;;;3.30;99.90;;;;;;4984944;28;20195;-76
2022/01/05 09:01:34;;;;;;;11.07;4.80;;;3.40;99.90;;;;;;4982295;28;20232;-73
2022/01/05 09:04:02;;;;;;;10.13;5.20;;;3.40;99.90;;;;;;4986859;28;20211;-77
2022/01/05 09:06:38;;;;;;;11.23;5.57;;;3.40;99.90;;;;;;4986958;28;20209;-76
2022/01/05 09:09:05;;;;;;;10.23;5.10;;;3.50;99.90;;;;;;4971044;28;20205;-76
2022/01/05 09:11:33;;;;;;;10.37;4.73;;;3.40;99.90;;;;;;4970817;28;20236;-77
2022/01/05 09:14:00;;;;;;;8.57;5.13;;;3.50;99.90;;;;;;4972934;28;20211;-76
2022/01/05 09:16:29;;;;;;;13.00;5.40;;;3.50;99.90;;;;;;4963984;28;20201;-76
2022/01/05 09:18:58;;;;;;;13.50;6.43;;;3.60;99.90;;;;;;4959553;28;20213;-76
2022/01/05 09:21:27;;;;;;;11.83;5.83;;;3.50;99.90;;;;;;4968254;28;20220;-77
2022/01/05 09:23:54;;;;;;;9.33;6.30;;;3.60;99.90;;;;;;4970677;28;20213;-75
2022/01/05 09:26:22;;;;;;;11.73;5.90;;;3.60;99.90;;;;;;4970261;28;20204;-77
2022/01/05 09:28:49;;;;;;;11.10;6.63;;;3.60;99.90;;;;;;4955019;28;20208;-74
2022/01/05 09:31:17;;;;;;;11.70;6.80;;;3.60;99.90;;;;;;4948613;28;20232;-77
2022/01/05 09:33:44;;;;;;;17.33;7.43;;;3.60;99.90;;;;;;4963641;28;20207;-77
2022/01/05 09:36:16;;;;;;;10.67;7.47;;;3.60;99.90;;;;;;4966054;28;20217;-77
2022/01/05 09:42:00;;;;;;;17.17;8.07;;;3.70;99.90;;;;;;4958557;28;20220;-77
2022/01/05 09:44:29;;;;;;;12.80;8.27;;;3.70;99.90;;;;;;4957630;28;20192;-76
2022/01/05 09:47:09;;;;;;;16.00;8.40;;;3.70;99.90;;;;;;4969266;28;20193;-77
2022/01/05 09:49:40;;;;;;;14.77;8.73;;;3.70;99.90;;;;;;4970817;28;20208;-75
2022/01/05 09:52:10;;;;;;;14.33;8.83;;;3.80;99.90;;;;;;4956070;28;20210;-73
2022/01/05 09:54:42;;;;;;;18.00;8.03;;;3.70;99.90;;;;;;4970789;28;20696;-76
2022/01/05 09:57:11;;;;;;;13.73;8.33;;;3.80;99.90;;;;;;4955561;28;20207;-76
2022/01/05 09:59:39;;;;;;;19.30;8.13;;;3.80;99.90;;;;;;4967985;28;20208;-75
2022/01/05 10:02:30;;;;;;;15.50;8.60;;;3.80;99.90;;;;;;4949578;28;20212;-76
2022/01/05 10:04:58;;;;;;;19.30;9.20;;;3.90;99.90;;;;;;4963922;28;20205;-76
2022/01/05 10:07:26;;;;;;;16.43;9.27;;;3.90;99.90;;;;;;4963291;28;20212;-76
2022/01/05 10:10:11;;;;;;;13.50;8.27;;;3.90;99.90;;;;;;4954291;28;20206;-76
2022/01/05 10:12:40;;;;;;;18.53;8.67;;;3.90;99.90;;;;;;4974469;28;20201;-76
2022/01/05 10:15:08;;;;;;;15.67;9.33;;;3.90;99.90;;;;;;4975141;28;20662;-76
2022/01/05 10:17:36;;;;;;;17.33;9.00;;;3.90;99.90;;;;;;4975536;28;20204;-76
2022/01/05 10:20:06;;;;;;;12.10;7.90;;;3.90;99.90;;;;;;4972323;28;20225;-76
2022/01/05 10:22:35;;;;;;;11.80;7.20;;;3.90;99.90;;;;;;4966999;28;20202;-76
2022/01/05 10:25:05;;;;;;;12.90;8.10;;;3.90;99.90;;;;;;4974193;28;20208;-75
2022/01/05 10:27:34;;;;;;;16.03;7.50;;;3.80;99.90;;;;;;4958466;28;20204;-72
2022/01/05 10:30:05;;;;;;;11.17;5.83;;;3.70;99.90;;;;;;4957343;28;20236;-73
2022/01/05 10:32:34;;;;;;;11.13;5.70;;;3.70;99.90;;;;;;4968223;28;20201;-72
2022/01/05 10:35:11;;;;;;;13.87;7.07;;;3.70;99.90;;;;;;4962554;28;20204;-77
2022/01/05 10:37:40;;;;;;;13.03;7.07;;;3.70;99.90;;;;;;4971900;28;20211;-76
2022/01/05 10:40:13;;;;;;;11.97;5.67;;;3.80;99.90;;;;;;4962015;28;20228;-75
2022/01/05 10:42:44;;;;;;;10.87;6.43;;;3.70;99.90;;;;;;4969933;28;20546;-75
2022/01/05 10:45:14;;;;;;;9.63;5.03;;;3.70;99.90;;;;;;4964374;28;20206;-75
2022/01/05 10:47:42;;;;;;;12.73;7.60;;;3.80;99.90;;;;;;4966438;28;20205;-76
2022/01/05 10:50:20;;;;;;;13.53;7.43;;;3.80;99.90;;;;;;4951592;28;20221;-76
2022/01/05 10:52:55;;;;;;;11.20;7.23;;;3.80;99.90;;;;;;4961965;28;20556;-75
2022/01/05 10:55:25;;;;;;;12.23;7.17;;;3.80;99.90;;;;;;4971390;28;20216;-76
2022/01/05 10:58:02;;;;;;;15.90;7.10;;;3.80;99.90;;;;;;4970066;28;20219;-76
2022/01/05 11:00:44;;;;;;;13.23;6.67;;;3.80;99.90;;;;;;4962447;28;20245;-75
2022/01/05 11:03:23;;;;;;;7.67;5.70;;;4.00;99.90;;;;;;4959500;28;20205;-72
2022/01/05 11:06:05;;;;;;;12.03;6.27;;;4.30;99.90;;;;;;4950149;28;20683;-76
2022/01/05 11:08:33;;;;;;;11.17;6.27;;;4.00;99.90;;;;;;4956191;28;20205;-76
2022/01/05 11:11:02;;;;;;;11.43;6.90;;;3.80;99.90;;;;;;4972328;28;20217;-75
2022/01/05 11:13:30;;;;;;;9.67;7.03;;;3.80;99.90;;;;;;4947741;28;20240;-76
2022/01/05 11:15:59;;;;;;;15.33;7.40;;;3.70;99.90;;;;;;4968714;28;20209;-76
2022/01/05 11:18:30;;;;;;;18.87;8.40;;;3.60;99.90;;;;;;4967080;28;20200;-77
2022/01/05 11:21:01;;;;;;;15.73;7.60;;;3.70;99.90;;;;;;4955264;28;20225;-77
2022/01/05 11:23:31;;;;;;;13.87;8.00;;;3.60;99.90;;;;;;4972584;28;20200;-77
2022/01/05 11:26:00;;;;;;;14.43;7.20;;;3.60;99.90;;;;;;4972939;28;20197;-76
2022/01/05 11:28:30;;;;;;;10.13;6.23;;;3.60;99.90;;;;;;4966867;28;20216;-77
2022/01/05 11:30:58;;;;;;;13.90;7.10;;;3.50;99.90;;;;;;4952746;28;20579;-74
2022/01/05 11:33:26;;;;;;;15.37;7.00;;;3.60;99.90;;;;;;4977865;28;20202;-77
2022/01/05 11:35:54;;;;;;;9.70;5.93;;;3.60;99.90;;;;;;4964679;28;20208;-77
2022/01/05 11:38:21;;;;;;;12.97;7.63;;;3.60;99.90;;;;;;4955942;28;20208;-77
2022/01/05 11:41:13;;;;;;;14.13;7.97;;;3.60;99.90;;;;;;4969966;28;20225;-75
2022/01/05 11:43:43;;;;;;;14.17;7.37;;;3.70;99.90;;;;;;4968224;28;20204;-74
2022/01/05 11:46:15;;;;;;;15.13;8.13;;;3.70;99.90;;;;;;4954934;28;20204;-75
2022/01/05 11:48:59;;;;;;;11.60;6.07;;;3.70;99.90;;;;;;4968749;28;20206;-75
2022/01/05 11:51:51;;;;;;;8.77;6.80;;;3.70;99.90;;;;;;4966919;28;20708;-74
2022/01/05 11:54:22;;;;;;;11.47;6.73;;;3.70;99.90;;;;;;4954119;28;20212;-77
2022/01/05 11:56:51;;;;;;;12.37;6.67;;;3.70;99.90;;;;;;4954299;28;20206;-76
2022/01/05 11:59:33;;;;;;;14.43;6.73;;;3.70;99.90;;;;;;4949930;28;20197;-76
2022/01/05 12:02:09;;;;;;;17.33;7.47;;;3.80;99.90;;;;;;4962560;28;20212;-75
2022/01/05 12:05:04;;;;;;;13.97;7.17;;;3.80;99.90;;;;;;4967988;28;20211;-75
2022/01/05 12:07:37;;;;;;;9.50;6.87;;;3.80;99.90;;;;;;4944049;28;20220;-75
2022/01/05 12:10:21;;;;;;;11.03;7.57;;;3.90;99.90;;;;;;4966919;28;20726;-75
2022/01/05 12:13:02;;;;;;;14.40;7.20;;;4.00;99.90;;;;;;4974768;28;20232;-75
2022/01/05 12:15:57;;;;;;;12.93;6.27;;;4.00;99.90;;;;;;4981827;28;20204;-73
2022/01/05 12:18:29;;;;;;;12.33;6.67;;;4.00;99.90;;;;;;4989075;28;20812;-73
2022/01/05 12:21:42;;;;;;;15.93;7.40;;;4.00;99.90;;;;;;4969999;28;20591;-72
2022/01/05 12:25:07;;;;;;;15.03;6.17;;;4.00;99.90;;;;;;4965633;28;20204;-72
2022/01/05 12:27:37;;;;;;;12.93;7.23;;;4.10;99.90;;;;;;4965905;28;20196;-72
2022/01/05 12:30:33;;;;;;;15.17;7.00;;;4.00;99.90;;;;;;4968581;28;20222;-72
2022/01/05 12:33:06;;;;;;;12.27;7.77;;;4.10;99.90;;;;;;4969925;28;20202;-72
2022/01/05 12:36:00;;;;;;;15.30;7.00;;;4.10;99.90;;;;;;4949047;28;20212;-73
2022/01/05 12:38:32;;;;;;;16.40;7.23;;;4.20;99.90;;;;;;4971984;28;20270;-72
2022/01/05 12:40:59;;;;;;;10.83;7.07;;;4.20;99.90;;;;;;4975365;28;20224;-72
2022/01/05 12:43:52;;;;;;;19.17;7.40;;;4.20;99.90;;;;;;4970827;28;20201;-72
2022/01/05 12:46:34;;;;;;;14.30;8.20;;;4.30;99.90;;;;;;4949203;28;20201;-73
2022/01/05 12:49:09;;;;;;;15.90;8.13;;;4.30;99.90;;;;;;4963914;28;20204;-73
2022/01/05 12:51:46;;;;;;;17.77;8.80;;;4.30;99.90;;;;;;4968570;28;20227;-73
2022/01/05 12:54:18;;;;;;;14.53;7.90;;;4.40;99.90;;;;;;4959417;28;20516;-72
2022/01/05 12:56:52;;;;;;;17.33;7.87;;;4.40;99.90;;;;;;4968932;28;20711;-72
2022/01/05 12:59:29;;;;;;;22.23;6.97;;;4.40;99.90;;;;;;4957821;28;20203;-72
2022/01/05 13:02:00;;;;;;;14.23;7.20;;;4.40;99.90;;;;;;4974041;28;20228;-73
2022/01/05 13:04:29;;;;;;;17.43;7.77;;;4.50;99.90;;;;;;4974351;28;20250;-72
2022/01/05 13:06:59;;;;;;;16.80;7.40;;;4.50;99.90;;;;;;4972868;28;20205;-72
2022/01/05 13:09:30;;;;;;;11.93;6.47;;;4.60;99.90;;;;;;4972495;28;20212;-72
2022/01/05 13:12:02;;;;;;;16.23;7.43;;;4.50;99.90;;;;;;4974139;28;20227;-72
2022/01/05 13:14:32;;;;;;;15.97;6.93;;;4.60;99.90;;;;;;4974189;28;20185;-72
2022/01/05 13:17:02;;;;;;;19.60;7.77;;;4.70;99.90;;;;;;4973057;28;20211;-73